Airport View

Enter AWOS ICAO identifier for current METAR.

ex. KFNL

KFGX 262314Z AUTO 31016G21KT 7SM DZ OVC010 01/00 A2987 RMK AO2 T00090001

26 Feb 2020 23:18

Frequency: 118.125

Phone: 606-742-2008

Other Area AWOS: KSYM - KIOB - KI69 - KPMH

TAF KLUK 261752Z 2618/2718 29008KT 3SM -RA SCT007 OVC012 FM262000 29010KT 5SM -RASN OVC009 FM262200 29011G20KT 5SM -SN OVC009 FM270100 30013G25KT P6SM VCSH OVC018 FM271200 27014G27KT P6SM OVC025